Zearing, Illinois
Current Conditions -  °F | °C
As of 8:55 AM on Wednesday 26 Nov 2014 (Local Time) from KVYS Reporting Station
Overcast Overcast  
Wind Chill: 15°   Ceiling: 1900
Heat Index: 24°   Visibility: 7mi
Dew Point: 22°   Wind: 8mph
Humidity: 91%   Direction: 130°SE
Pressure: 30.13"   Gusts: NA
Location:  41.449°N, 89.3492°W
Report Text: KVYS 261455Z AUTO 13007KT 7SM OVC019 M04/M05 A3013 RMK AO2 T10431055
Loading
Personal Weather Stations






























Interactive Weather Map New forecast layout! Learn more

10-Day Weather Forecast

Advertisements
Track Severe Weather on mobile